createdAt,value
2018-09-29T00:01:49.802Z,3.43
2018-09-29T00:04:23.738Z,3.63
2018-09-29T00:06:55.097Z,3.53
2018-09-29T00:09:25.670Z,4.70
2018-09-29T00:11:54.984Z,3.00
2018-09-29T00:14:25.526Z,3.60
2018-09-29T00:16:54.844Z,3.40
2018-09-29T00:19:24.203Z,2.87
2018-09-29T00:21:55.188Z,3.10
2018-09-29T00:24:26.137Z,2.47
2018-09-29T00:26:57.605Z,2.83
2018-09-29T00:29:29.696Z,3.23
2018-09-29T00:32:04.066Z,2.80
2018-09-29T00:34:34.506Z,2.80
2018-09-29T00:37:04.333Z,3.33
2018-09-29T00:39:35.782Z,2.63
2018-09-29T00:42:07.995Z,3.20
2018-09-29T00:44:37.349Z,2.50
2018-09-29T00:47:06.804Z,4.27
2018-09-29T00:49:36.330Z,2.93
2018-09-29T00:52:05.649Z,3.03
2018-09-29T00:54:34.990Z,3.70
2018-09-29T00:57:04.531Z,2.60
2018-09-29T00:59:33.959Z,2.50
2018-09-29T01:02:03.287Z,3.17
2018-09-29T01:04:32.614Z,2.70
2018-09-29T01:07:01.957Z,2.37
2018-09-29T01:09:31.544Z,2.80
2018-09-29T01:12:00.982Z,2.50
2018-09-29T01:14:30.511Z,2.80
2018-09-29T01:17:00.705Z,3.00
2018-09-29T01:19:30.302Z,3.60
2018-09-29T01:21:59.828Z,3.13
2018-09-29T01:24:29.369Z,3.27
2018-09-29T01:26:58.872Z,2.73
2018-09-29T01:29:29.339Z,2.50
2018-09-29T01:32:01.179Z,4.07
2018-09-29T01:34:31.398Z,2.77
2018-09-29T01:37:00.811Z,3.07
2018-09-29T01:39:30.528Z,2.30
2018-09-29T01:42:01.089Z,3.50
2018-09-29T01:44:30.712Z,2.77
2018-09-29T01:47:00.124Z,3.07
2018-09-29T01:49:29.635Z,3.17
2018-09-29T01:51:59.455Z,3.20
2018-09-29T01:54:28.950Z,3.10
2018-09-29T01:56:58.574Z,3.10
2018-09-29T01:59:28.327Z,2.30
2018-09-29T02:01:57.656Z,2.73
2018-09-29T02:04:27.469Z,3.10
2018-09-29T02:06:57.038Z,3.20
2018-09-29T02:09:26.547Z,3.40
2018-09-29T02:11:57.623Z,3.10
2018-09-29T02:14:27.139Z,2.47
2018-09-29T02:16:56.815Z,3.10
2018-09-29T02:19:26.455Z,2.40
2018-09-29T02:21:55.976Z,2.40
2018-09-29T02:24:25.493Z,2.27
2018-09-29T02:26:55.409Z,2.57
2018-09-29T02:29:24.739Z,3.00
2018-09-29T02:31:55.155Z,3.10
2018-09-29T02:34:24.525Z,3.30
2018-09-29T02:36:53.848Z,2.80
2018-09-29T02:39:23.228Z,2.60
2018-09-29T02:41:52.613Z,2.70
2018-09-29T02:44:21.918Z,3.27
2018-09-29T02:46:51.846Z,3.00
2018-09-29T02:49:21.526Z,2.93
2018-09-29T02:51:50.855Z,2.80
2018-09-29T02:54:20.273Z,3.30
2018-09-29T02:56:50.763Z,2.00
2018-09-29T02:59:20.304Z,2.93
2018-09-29T03:01:49.667Z,2.80
2018-09-29T03:04:19.022Z,3.43
2018-09-29T03:06:48.330Z,2.80
2018-09-29T03:09:17.676Z,2.70
2018-09-29T03:11:48.671Z,2.73
2018-09-29T03:14:17.995Z,3.10
2018-09-29T03:16:47.254Z,2.93
2018-09-29T03:19:16.584Z,2.83
2018-09-29T03:21:45.836Z,2.67
2018-09-29T03:24:15.161Z,2.90
2018-09-29T03:26:44.506Z,2.90
2018-09-29T03:29:13.915Z,2.60
2018-09-29T03:31:43.283Z,3.30
2018-09-29T03:34:12.675Z,2.90
2018-09-29T03:36:41.967Z,3.10
2018-09-29T03:39:12.742Z,3.03
2018-09-29T03:41:42.106Z,3.30
2018-09-29T03:44:11.525Z,3.50
2018-09-29T03:46:40.806Z,2.93
2018-09-29T03:49:10.195Z,2.43
2018-09-29T03:51:39.485Z,2.53
2018-09-29T03:54:09.779Z,2.73
2018-09-29T03:56:39.315Z,2.57
2018-09-29T03:59:08.617Z,2.67
2018-09-29T04:01:37.931Z,3.07
2018-09-29T04:04:07.217Z,2.30
2018-09-29T04:06:37.647Z,3.43
2018-09-29T04:09:08.145Z,2.47
2018-09-29T04:11:37.445Z,3.80
2018-09-29T04:14:07.124Z,2.70
2018-09-29T04:16:36.755Z,2.10
2018-09-29T04:19:06.325Z,2.20
2018-09-29T04:21:50.214Z,2.00
2018-09-29T04:24:19.636Z,2.43
2018-09-29T04:26:48.958Z,2.57
2018-09-29T04:29:18.314Z,2.80
2018-09-29T04:31:47.582Z,2.77
2018-09-29T04:34:16.881Z,3.60
2018-09-29T04:36:46.323Z,2.27
2018-09-29T04:39:16.001Z,2.30
2018-09-29T04:41:45.675Z,2.40
2018-09-29T04:44:15.121Z,2.77
2018-09-29T04:46:44.463Z,2.30
2018-09-29T04:49:13.934Z,2.87
2018-09-29T04:51:43.288Z,3.13
2018-09-29T04:54:12.545Z,3.50
2018-09-29T04:56:41.847Z,2.70
2018-09-29T04:59:11.250Z,2.83
2018-09-29T05:01:40.576Z,3.17
2018-09-29T05:04:09.859Z,3.23
2018-09-29T05:06:39.234Z,2.93
2018-09-29T05:09:09.647Z,2.98
2018-09-29T05:11:38.945Z,2.37
2018-09-29T05:14:08.465Z,2.13
2018-09-29T05:16:37.714Z,2.20
2018-09-29T05:19:06.986Z,2.45
2018-09-29T05:21:36.388Z,2.60
2018-09-29T05:24:05.710Z,2.70
2018-09-29T05:26:35.001Z,2.33
2018-09-29T05:29:04.405Z,3.15
2018-09-29T05:31:33.750Z,2.65
2018-09-29T05:34:03.018Z,1.92
2018-09-29T05:36:32.308Z,2.60
2018-09-29T05:39:01.584Z,3.00
2018-09-29T05:41:31.018Z,2.40
2018-09-29T05:44:00.708Z,2.67
2018-09-29T05:46:30.008Z,3.17
2018-09-29T05:48:59.361Z,2.62
2018-09-29T05:51:28.746Z,3.40
2018-09-29T05:53:58.075Z,2.20
2018-09-29T05:56:27.399Z,2.70
2018-09-29T05:58:56.830Z,2.47
2018-09-29T06:01:26.276Z,2.73
2018-09-29T06:03:55.633Z,2.97
2018-09-29T06:06:25.336Z,2.37
2018-09-29T06:08:55.453Z,2.20
2018-09-29T06:11:25.268Z,2.60
2018-09-29T06:13:54.899Z,2.93
2018-09-29T06:16:24.776Z,3.53
2018-09-29T06:18:54.707Z,2.87
2018-09-29T06:21:24.426Z,3.20
2018-09-29T06:23:54.024Z,2.50
2018-09-29T06:26:23.385Z,2.90
2018-09-29T06:28:53.316Z,2.87
2018-09-29T06:31:22.866Z,2.90
2018-09-29T06:33:52.722Z,2.73
2018-09-29T06:36:22.409Z,2.87
2018-09-29T06:38:52.231Z,3.37
2018-09-29T06:41:21.988Z,3.00
2018-09-29T06:43:51.710Z,3.40
2018-09-29T06:46:21.918Z,3.07
2018-09-29T06:48:53.019Z,3.00
2018-09-29T06:51:22.650Z,3.13
2018-09-29T06:53:52.491Z,2.30
2018-09-29T06:56:23.826Z,3.10
2018-09-29T06:58:53.641Z,3.63
2018-09-29T07:01:23.781Z,3.07
2018-09-29T07:03:53.591Z,2.60
2018-09-29T07:06:23.353Z,2.90
2018-09-29T07:08:53.160Z,4.20
2018-09-29T07:11:22.932Z,2.90
2018-09-29T07:13:52.513Z,3.67
2018-09-29T07:16:22.371Z,3.67
2018-09-29T07:18:52.036Z,3.07
2018-09-29T07:21:21.573Z,3.47
2018-09-29T07:23:51.175Z,4.10
2018-09-29T07:26:20.782Z,3.20
2018-09-29T07:28:50.411Z,3.93
2018-09-29T07:31:21.042Z,4.10
2018-09-29T07:33:50.918Z,4.73
2018-09-29T07:36:20.853Z,4.33
2018-09-29T07:38:51.355Z,3.63
2018-09-29T07:41:21.037Z,3.20
2018-09-29T07:43:50.805Z,4.10
2018-09-29T07:46:20.541Z,7.43
2018-09-29T07:48:50.386Z,3.97
2018-09-29T07:51:20.082Z,5.60
2018-09-29T07:53:49.552Z,3.40
2018-09-29T07:56:18.881Z,3.27
2018-09-29T07:58:48.311Z,3.37
2018-09-29T08:01:17.752Z,3.00
2018-09-29T08:03:47.145Z,2.70
2018-09-29T08:06:16.532Z,2.50
2018-09-29T08:08:46.106Z,4.37
2018-09-29T08:11:15.538Z,2.60
2018-09-29T08:13:44.978Z,2.70
2018-09-29T08:16:14.403Z,2.30
2018-09-29T08:18:43.871Z,2.40
2018-09-29T08:21:13.222Z,2.87
2018-09-29T08:23:42.633Z,2.90
2018-09-29T08:26:11.954Z,2.53
2018-09-29T08:28:41.412Z,3.00
2018-09-29T08:31:10.890Z,3.03
2018-09-29T08:33:40.238Z,2.37
2018-09-29T08:36:09.625Z,2.70
2018-09-29T08:38:39.051Z,4.30
2018-09-29T08:41:08.398Z,3.33
2018-09-29T08:43:37.819Z,2.90
2018-09-29T08:46:07.402Z,3.83
2018-09-29T08:48:36.841Z,3.47
2018-09-29T08:51:06.303Z,2.57
2018-09-29T08:53:37.436Z,2.40
2018-09-29T08:56:09.853Z,2.50
2018-09-29T08:58:40.457Z,2.80
2018-09-29T09:01:12.351Z,4.23
2018-09-29T09:03:42.108Z,2.57
2018-09-29T09:06:11.639Z,2.13
2018-09-29T09:08:41.069Z,2.63
2018-09-29T09:11:11.505Z,2.53
2018-09-29T09:13:42.631Z,3.43
2018-09-29T09:16:12.192Z,2.80
2018-09-29T09:18:41.844Z,2.70
2018-09-29T09:21:11.165Z,4.70
2018-09-29T09:23:41.919Z,2.83
2018-09-29T09:26:11.324Z,2.90
2018-09-29T09:28:40.812Z,2.30
2018-09-29T09:31:10.709Z,2.17
2018-09-29T09:33:40.041Z,3.40
2018-09-29T09:36:09.523Z,1.80
2018-09-29T09:38:38.934Z,2.90
2018-09-29T09:41:10.016Z,3.07
2018-09-29T09:43:39.825Z,3.87
2018-09-29T09:46:09.190Z,2.67
2018-09-29T09:48:38.581Z,1.83
2018-09-29T09:51:08.560Z,2.73
2018-09-29T09:53:37.902Z,2.00
2018-09-29T09:56:07.733Z,2.67
2018-09-29T09:58:38.948Z,2.13
2018-09-29T10:01:13.360Z,2.13
2018-09-29T10:03:42.694Z,1.73
2018-09-29T10:06:11.999Z,3.57
2018-09-29T10:08:41.403Z,3.13
2018-09-29T10:11:10.786Z,2.57
2018-09-29T10:13:40.116Z,2.37
2018-09-29T10:16:10.427Z,1.80
2018-09-29T10:18:39.830Z,1.70
2018-09-29T10:21:09.498Z,2.30
2018-09-29T10:23:38.807Z,2.37
2018-09-29T10:26:08.171Z,2.87
2018-09-29T10:28:37.513Z,2.73
2018-09-29T10:31:06.905Z,1.80
2018-09-29T10:33:36.356Z,2.43
2018-09-29T10:36:05.729Z,1.73
2018-09-29T10:38:35.061Z,2.87
2018-09-29T10:41:04.523Z,2.70
2018-09-29T10:43:33.983Z,1.70
2018-09-29T10:46:03.394Z,1.63
2018-09-29T10:48:32.811Z,1.90
2018-09-29T10:51:02.350Z,2.50
2018-09-29T10:53:31.644Z,2.67
2018-09-29T10:56:02.155Z,1.90
2018-09-29T10:58:31.476Z,1.60
2018-09-29T11:01:00.819Z,2.60
2018-09-29T11:03:30.684Z,2.67
2018-09-29T11:06:00.072Z,1.70
2018-09-29T11:08:29.401Z,2.10
2018-09-29T11:10:58.762Z,2.47
2018-09-29T11:13:28.213Z,1.90
2018-09-29T11:15:57.845Z,1.90
2018-09-29T11:18:27.341Z,2.47
2018-09-29T11:20:57.050Z,2.17
2018-09-29T11:23:26.603Z,4.17
2018-09-29T11:25:56.387Z,2.07
2018-09-29T11:28:25.912Z,1.80
2018-09-29T11:30:55.554Z,1.80
2018-09-29T11:33:25.123Z,1.50
2018-09-29T11:35:54.989Z,1.90
2018-09-29T11:38:25.075Z,2.80
2018-09-29T11:40:55.273Z,2.77
2018-09-29T11:43:24.785Z,2.80
2018-09-29T11:45:54.408Z,2.70
2018-09-29T11:48:24.435Z,2.13
2018-09-29T11:50:53.974Z,1.57
2018-09-29T11:53:24.664Z,1.80
2018-09-29T11:55:54.271Z,1.73
2018-09-29T11:58:23.772Z,2.20
2018-09-29T12:00:53.503Z,1.70
2018-09-29T12:03:23.019Z,2.27
2018-09-29T12:05:52.612Z,2.20
2018-09-29T12:08:22.057Z,2.03
2018-09-29T12:10:51.821Z,4.03
2018-09-29T12:13:22.292Z,2.13
2018-09-29T12:15:52.676Z,1.73
2018-09-29T12:18:22.078Z,2.73
2018-09-29T12:20:52.583Z,1.90
2018-09-29T12:23:22.037Z,2.90
2018-09-29T12:25:51.644Z,2.07
2018-09-29T12:28:21.602Z,2.77
2018-09-29T12:30:52.423Z,1.87
2018-09-29T12:33:23.491Z,2.33
2018-09-29T12:35:54.073Z,2.20
2018-09-29T12:38:23.566Z,1.73
2018-09-29T12:40:53.464Z,2.50
2018-09-29T12:43:23.124Z,2.17
2018-09-29T12:45:52.774Z,2.63
2018-09-29T12:48:22.433Z,2.63
2018-09-29T12:50:53.496Z,3.03
2018-09-29T12:53:22.811Z,6.70
2018-09-29T12:55:52.506Z,2.30
2018-09-29T12:58:21.964Z,2.70
2018-09-29T13:00:51.832Z,2.37
2018-09-29T13:03:21.410Z,2.53
2018-09-29T13:05:52.138Z,2.03
2018-09-29T13:08:22.522Z,2.70
2018-09-29T13:10:53.299Z,2.40
2018-09-29T13:13:23.043Z,1.80
2018-09-29T13:15:52.557Z,1.80
2018-09-29T13:18:22.075Z,1.70
2018-09-29T13:20:51.594Z,1.90
2018-09-29T13:23:21.155Z,1.60
2018-09-29T13:25:51.793Z,1.60
2018-09-29T13:28:21.249Z,1.40
2018-09-29T13:30:50.827Z,1.50
2018-09-29T13:33:20.872Z,2.77
2018-09-29T13:35:50.671Z,1.77
2018-09-29T13:38:20.431Z,1.23
2018-09-29T13:40:49.847Z,1.50
2018-09-29T13:43:19.685Z,1.60
2018-09-29T13:45:49.506Z,1.97
2018-09-29T13:48:19.028Z,1.50
2018-09-29T13:50:48.797Z,2.10
2018-09-29T13:53:18.604Z,1.87
2018-09-29T13:55:48.466Z,1.90
2018-09-29T13:58:17.811Z,2.37
2018-09-29T14:00:47.314Z,2.33
2018-09-29T14:03:16.747Z,2.67
2018-09-29T14:05:46.219Z,1.80
2018-09-29T14:08:15.782Z,2.43
2018-09-29T14:10:45.392Z,1.80
2018-09-29T14:13:14.796Z,2.03
2018-09-29T14:15:44.214Z,1.87
2018-09-29T14:18:14.198Z,1.80
2018-09-29T14:20:43.585Z,2.27
2018-09-29T14:23:13.020Z,2.17
2018-09-29T14:25:42.367Z,2.33
2018-09-29T14:28:11.720Z,2.13
2018-09-29T14:30:41.074Z,1.83
2018-09-29T14:33:10.539Z,2.30
2018-09-29T14:35:40.469Z,1.53
2018-09-29T14:38:10.086Z,1.90
2018-09-29T14:40:39.847Z,1.83
2018-09-29T14:43:09.387Z,1.77
2018-09-29T14:45:39.472Z,1.43
2018-09-29T14:48:08.970Z,2.97
2018-09-29T14:50:38.669Z,1.50
2018-09-29T14:53:09.116Z,2.30
2018-09-29T14:55:39.612Z,2.57
2018-09-29T14:58:09.778Z,2.93
2018-09-29T15:00:39.251Z,2.23
2018-09-29T15:03:08.818Z,1.70
2018-09-29T15:05:38.283Z,3.00
2018-09-29T15:08:07.668Z,2.53
2018-09-29T15:10:37.123Z,1.73
2018-09-29T15:13:06.577Z,3.00
2018-09-29T15:15:35.966Z,1.63
2018-09-29T15:18:05.461Z,2.37
2018-09-29T15:20:34.886Z,3.10
2018-09-29T15:23:04.328Z,2.10
2018-09-29T15:25:34.145Z,2.50
2018-09-29T15:28:03.570Z,2.10
2018-09-29T15:30:32.983Z,2.07
2018-09-29T15:33:02.362Z,1.83
2018-09-29T15:35:31.858Z,2.40
2018-09-29T15:38:01.431Z,1.20
2018-09-29T15:40:31.758Z,1.50
2018-09-29T15:43:01.254Z,1.60
2018-09-29T15:45:30.671Z,2.20
2018-09-29T15:48:00.215Z,2.40
2018-09-29T15:50:29.619Z,2.07
2018-09-29T15:52:59.054Z,1.37
2018-09-29T15:55:28.768Z,2.40
2018-09-29T15:57:58.449Z,1.40
2018-09-29T16:00:27.955Z,2.67
2018-09-29T16:02:58.760Z,1.70
2018-09-29T16:05:28.079Z,2.37
2018-09-29T16:07:57.672Z,2.83
2018-09-29T16:10:27.163Z,2.93
2018-09-29T16:12:56.659Z,2.10
2018-09-29T16:15:25.982Z,3.60
2018-09-29T16:17:57.684Z,4.20
2018-09-29T16:20:27.308Z,3.80
2018-09-29T16:22:56.854Z,2.50
2018-09-29T16:25:26.391Z,2.20
2018-09-29T16:27:55.890Z,6.13
2018-09-29T16:30:25.292Z,7.47
2018-09-29T16:32:55.010Z,4.87
2018-09-29T16:35:24.499Z,4.83
2018-09-29T16:37:53.907Z,8.13
2018-09-29T16:40:23.317Z,5.60
2018-09-29T16:42:52.899Z,3.97
2018-09-29T16:45:22.360Z,7.30
2018-09-29T16:47:51.910Z,10.67
2018-09-29T16:50:21.269Z,7.30
2018-09-29T16:52:50.633Z,7.20
2018-09-29T16:55:20.213Z,5.20
2018-09-29T16:57:49.584Z,4.03
2018-09-29T17:00:23.421Z,4.60
2018-09-29T17:02:52.845Z,4.47
2018-09-29T17:05:22.259Z,3.90
2018-09-29T17:07:51.956Z,3.13
2018-09-29T17:10:21.261Z,4.67
2018-09-29T17:12:50.664Z,4.33
2018-09-29T17:15:23.438Z,4.20
2018-09-29T17:17:52.732Z,6.13
2018-09-29T17:20:22.148Z,6.10
2018-09-29T17:22:51.643Z,3.93
2018-09-29T17:25:20.948Z,5.30
2018-09-29T17:27:50.286Z,8.97
2018-09-29T17:30:19.793Z,13.57
2018-09-29T17:32:49.276Z,7.13
2018-09-29T17:35:18.648Z,7.30
2018-09-29T17:37:48.103Z,14.43
2018-09-29T17:40:17.731Z,17.53
2018-09-29T17:42:47.108Z,14.40
2018-09-29T17:45:16.517Z,13.33
2018-09-29T17:47:46.632Z,11.10
2018-09-29T17:50:16.212Z,11.77
2018-09-29T17:52:46.876Z,6.93
2018-09-29T17:55:16.806Z,9.33
2018-09-29T17:57:47.172Z,9.00
2018-09-29T18:00:17.601Z,8.50
2018-09-29T18:02:47.672Z,12.57
2018-09-29T18:05:17.035Z,9.30
2018-09-29T18:07:46.530Z,8.67
2018-09-29T18:10:16.951Z,7.03
2018-09-29T18:12:46.401Z,6.67
2018-09-29T18:15:15.859Z,8.07
2018-09-29T18:17:45.192Z,10.60
2018-09-29T18:20:14.614Z,9.43
2018-09-29T18:22:44.176Z,8.17
2018-09-29T18:25:13.567Z,7.27
2018-09-29T18:27:42.943Z,7.47
2018-09-29T18:30:12.330Z,8.83
2018-09-29T18:32:42.462Z,9.53
2018-09-29T18:35:11.937Z,7.10
2018-09-29T18:37:41.360Z,7.23
2018-09-29T18:40:10.952Z,10.97
2018-09-29T18:42:40.408Z,8.07
2018-09-29T18:45:10.160Z,12.20
2018-09-29T18:47:39.652Z,12.23
2018-09-29T18:50:09.230Z,8.10
2018-09-29T18:52:38.679Z,5.83
2018-09-29T18:55:08.132Z,8.17
2018-09-29T18:57:38.515Z,6.60
2018-09-29T19:00:08.507Z,7.27
2018-09-29T19:02:38.216Z,6.00
2018-09-29T19:05:07.760Z,5.43
2018-09-29T19:07:37.740Z,5.53
2018-09-29T19:10:07.496Z,5.13
2018-09-29T19:12:39.253Z,5.63
2018-09-29T19:15:08.712Z,6.33
2018-09-29T19:17:38.835Z,6.40
2018-09-29T19:20:08.651Z,5.10
2018-09-29T19:22:38.232Z,5.57
2018-09-29T19:25:08.093Z,5.50
2018-09-29T19:27:38.344Z,6.13
2018-09-29T19:30:07.935Z,5.23
2018-09-29T19:32:37.555Z,5.07
2018-09-29T19:35:07.422Z,5.30
2018-09-29T19:37:36.993Z,5.57
2018-09-29T19:40:07.294Z,5.50
2018-09-29T19:42:37.732Z,5.27
2018-09-29T19:45:07.295Z,4.80
2018-09-29T19:47:36.885Z,5.77
2018-09-29T19:50:07.226Z,6.10
2018-09-29T19:52:37.037Z,6.07
2018-09-29T19:55:07.401Z,5.87
2018-09-29T19:57:37.135Z,6.10
2018-09-29T20:00:07.409Z,5.33
2018-09-29T20:02:37.008Z,5.73
2018-09-29T20:05:07.086Z,5.80
2018-09-29T20:07:37.043Z,5.10
2018-09-29T20:10:06.599Z,7.37
2018-09-29T20:12:36.095Z,6.63
2018-09-29T20:15:05.800Z,6.80
2018-09-29T20:17:35.479Z,5.53
2018-09-29T20:20:05.101Z,5.40
2018-09-29T20:22:34.813Z,6.33
2018-09-29T20:25:04.538Z,4.67
2018-09-29T20:27:34.834Z,6.33
2018-09-29T20:30:04.326Z,5.30
2018-09-29T20:32:34.272Z,5.60
2018-09-29T20:35:04.305Z,5.17
2018-09-29T20:37:33.937Z,5.40
2018-09-29T20:40:03.420Z,4.63
2018-09-29T20:42:33.043Z,5.50
2018-09-29T20:45:03.784Z,5.67
2018-09-29T20:47:35.314Z,5.70
2018-09-29T20:50:07.820Z,5.20
2018-09-29T20:52:37.852Z,4.63
2018-09-29T20:55:07.800Z,5.90
2018-09-29T20:57:37.933Z,5.57
2018-09-29T21:00:07.813Z,5.10
2018-09-29T21:02:37.711Z,5.07
2018-09-29T21:05:07.129Z,5.37
2018-09-29T21:07:37.607Z,5.37
2018-09-29T21:10:07.081Z,5.33
2018-09-29T21:12:37.166Z,5.60
2018-09-29T21:15:09.130Z,4.87
2018-09-29T21:17:38.578Z,5.83
2018-09-29T21:20:08.193Z,4.70
2018-09-29T21:22:37.663Z,5.03
2018-09-29T21:25:07.092Z,5.77
2018-09-29T21:27:36.555Z,5.00
2018-09-29T21:30:06.374Z,5.70
2018-09-29T21:32:35.792Z,5.50
2018-09-29T21:35:05.457Z,5.17
2018-09-29T21:37:35.224Z,5.97
2018-09-29T21:40:05.370Z,6.10
2018-09-29T21:42:35.020Z,6.43
2018-09-29T21:45:04.873Z,15.70
2018-09-29T21:47:34.264Z,20.70
2018-09-29T21:50:03.826Z,15.30
2018-09-29T21:52:33.321Z,12.60
2018-09-29T21:55:02.811Z,10.67
2018-09-29T21:57:32.351Z,6.53
2018-09-29T22:00:02.250Z,7.00
2018-09-29T22:02:32.289Z,6.20
2018-09-29T22:05:01.737Z,6.60
2018-09-29T22:07:31.373Z,7.87
2018-09-29T22:10:00.912Z,7.53
2018-09-29T22:12:30.391Z,7.43
2018-09-29T22:14:59.895Z,9.47
2018-09-29T22:17:29.562Z,8.10
2018-09-29T22:19:58.977Z,7.73
2018-09-29T22:22:29.575Z,7.00
2018-09-29T22:24:58.949Z,6.63
2018-09-29T22:27:28.279Z,6.90
2018-09-29T22:29:57.755Z,6.80
2018-09-29T22:32:30.472Z,6.23
2018-09-29T22:35:00.081Z,6.40
2018-09-29T22:37:29.642Z,5.70
2018-09-29T22:39:59.049Z,5.80
2018-09-29T22:42:28.632Z,5.70
2018-09-29T22:44:58.121Z,5.90
2018-09-29T22:47:27.520Z,6.20
2018-09-29T22:49:56.971Z,6.47
2018-09-29T22:52:26.337Z,6.10
2018-09-29T22:54:56.009Z,6.13
2018-09-29T22:57:25.951Z,5.97
2018-09-29T22:59:55.508Z,5.50
2018-09-29T23:02:24.907Z,5.73
2018-09-29T23:04:54.449Z,6.73
2018-09-29T23:07:23.915Z,6.10
2018-09-29T23:09:53.302Z,6.40
2018-09-29T23:12:22.654Z,5.47
2018-09-29T23:14:51.991Z,6.50
2018-09-29T23:17:21.371Z,17.37
2018-09-29T23:19:50.777Z,7.40
2018-09-29T23:22:20.210Z,19.23
2018-09-29T23:24:49.676Z,6.20
2018-09-29T23:27:19.527Z,6.97
2018-09-29T23:29:48.936Z,8.17
2018-09-29T23:32:18.387Z,5.27
2018-09-29T23:34:47.807Z,5.00
2018-09-29T23:37:17.267Z,5.03
2018-09-29T23:39:46.776Z,5.53
2018-09-29T23:42:16.253Z,5.70
2018-09-29T23:44:45.782Z,5.40
2018-09-29T23:47:15.182Z,5.80
2018-09-29T23:49:45.039Z,5.20
2018-09-29T23:52:15.515Z,4.90
2018-09-29T23:54:44.897Z,7.00
2018-09-29T23:57:14.222Z,4.37
2018-09-29T23:59:43.541Z,4.97
